createdAt,value
2023-02-17T00:02:30.058Z,43.18
2023-02-17T00:05:16.106Z,42.77
2023-02-17T00:08:02.017Z,43.23
2023-02-17T00:10:58.406Z,44.17
2023-02-17T00:13:44.812Z,43.77
2023-02-17T00:16:30.590Z,43.41
2023-02-17T00:19:26.653Z,43.25
2023-02-17T00:22:12.499Z,43.77
2023-02-17T00:24:58.202Z,43.53
2023-02-17T00:27:43.709Z,44.12
2023-02-17T00:30:29.492Z,44.44
2023-02-17T00:33:15.228Z,43.97
2023-02-17T00:36:10.906Z,44.52
2023-02-17T00:38:58.036Z,44.22
2023-02-17T00:41:44.442Z,44.60
2023-02-17T00:44:30.393Z,44.66
2023-02-17T00:47:18.213Z,44.08
2023-02-17T00:50:07.205Z,44.25
2023-02-17T00:52:53.934Z,44.33
2023-02-17T00:55:39.642Z,44.05
2023-02-17T00:58:25.646Z,44.13
2023-02-17T01:01:15.030Z,44.53
2023-02-17T01:04:02.047Z,44.29
2023-02-17T01:06:56.076Z,44.76
2023-02-17T01:09:42.544Z,44.36
2023-02-17T01:12:34.939Z,44.84
2023-02-17T01:15:20.612Z,44.29
2023-02-17T01:18:08.027Z,44.22
2023-02-17T01:20:54.391Z,44.76
2023-02-17T01:23:39.935Z,44.50
2023-02-17T01:26:29.134Z,44.45
2023-02-17T01:29:14.869Z,44.84
2023-02-17T01:32:09.899Z,46.34
2023-02-17T01:34:55.728Z,44.92
2023-02-17T01:37:41.599Z,44.30
2023-02-17T01:40:27.601Z,44.59
2023-02-17T01:43:31.461Z,47.31
2023-02-17T01:46:17.940Z,45.08
2023-02-17T01:49:28.773Z,44.86
2023-02-17T01:52:18.868Z,44.49
2023-02-17T01:55:08.851Z,44.87
2023-02-17T01:57:56.765Z,44.77
2023-02-17T02:00:43.160Z,45.20
2023-02-17T02:03:31.436Z,45.11
2023-02-17T02:06:21.443Z,45.64
2023-02-17T02:09:19.163Z,45.46
2023-02-17T02:12:20.650Z,45.39
2023-02-17T02:15:12.603Z,45.36
2023-02-17T02:18:04.279Z,45.27
2023-02-17T02:20:52.565Z,45.57
2023-02-17T02:23:49.888Z,45.07
2023-02-17T02:26:58.619Z,46.19
2023-02-17T02:30:08.868Z,46.95
2023-02-17T02:33:00.200Z,45.75
2023-02-17T02:35:55.422Z,46.09
2023-02-17T02:38:46.390Z,46.00
2023-02-17T02:41:39.572Z,46.27
2023-02-17T02:44:25.618Z,47.32
2023-02-17T02:48:05.985Z,47.10
2023-02-17T02:51:13.324Z,46.10
2023-02-17T02:53:59.087Z,45.37
2023-02-17T02:57:16.436Z,46.16
2023-02-17T03:00:24.186Z,47.08
2023-02-17T03:03:26.079Z,45.90
2023-02-17T03:06:17.270Z,46.12
2023-02-17T03:09:07.966Z,46.31
2023-02-17T03:11:57.998Z,46.07
2023-02-17T03:14:48.578Z,45.98
2023-02-17T03:17:36.093Z,45.97
2023-02-17T03:20:22.563Z,45.99
2023-02-17T03:23:08.340Z,46.41
2023-02-17T03:25:54.391Z,46.11
2023-02-17T03:28:40.370Z,46.23
2023-02-17T03:31:28.473Z,46.31
2023-02-17T03:34:15.371Z,46.00
2023-02-17T03:37:01.043Z,46.36
2023-02-17T03:39:46.710Z,45.94
2023-02-17T03:42:32.605Z,46.46
2023-02-17T03:45:18.333Z,45.46
2023-02-17T03:48:04.507Z,46.00
2023-02-17T03:50:50.384Z,46.30
2023-02-17T03:53:36.261Z,47.01
2023-02-17T03:56:22.156Z,46.03
2023-02-17T03:59:08.118Z,46.41
2023-02-17T04:01:54.100Z,46.07
2023-02-17T04:04:39.832Z,46.70
2023-02-17T04:07:25.442Z,46.49
2023-02-17T04:10:11.374Z,46.52
2023-02-17T04:12:57.499Z,46.79
2023-02-17T04:15:43.240Z,46.53
2023-02-17T04:18:28.881Z,46.87
2023-02-17T04:21:16.662Z,46.68
2023-02-17T04:24:02.752Z,47.15
2023-02-17T04:26:48.574Z,47.10
2023-02-17T04:29:34.117Z,47.21
2023-02-17T04:32:19.811Z,46.76
2023-02-17T04:35:05.871Z,46.65
2023-02-17T04:37:51.914Z,46.88
2023-02-17T04:40:38.215Z,46.82
2023-02-17T04:43:26.950Z,46.88
2023-02-17T04:46:12.904Z,47.25
2023-02-17T04:48:58.837Z,46.80
2023-02-17T04:51:44.773Z,46.82
2023-02-17T04:54:30.423Z,47.20
2023-02-17T04:57:16.386Z,46.78
2023-02-17T05:00:02.164Z,46.98
2023-02-17T05:02:48.088Z,47.45
2023-02-17T05:05:34.779Z,47.19
2023-02-17T05:08:20.294Z,47.65
2023-02-17T05:11:05.942Z,46.78
2023-02-17T05:13:51.600Z,47.21
2023-02-17T05:16:37.218Z,47.63
2023-02-17T05:19:22.853Z,47.17
2023-02-17T05:22:08.443Z,47.16
2023-02-17T05:24:54.221Z,47.23
2023-02-17T05:27:40.087Z,47.08
2023-02-17T05:30:25.787Z,47.70
2023-02-17T05:33:11.705Z,47.53
2023-02-17T05:36:01.721Z,47.26
2023-02-17T05:38:49.990Z,47.82
2023-02-17T05:41:35.949Z,48.11
2023-02-17T05:44:21.787Z,47.62
2023-02-17T05:47:07.469Z,47.76
2023-02-17T05:49:55.236Z,47.98
2023-02-17T05:52:41.722Z,47.82
2023-02-17T05:55:27.794Z,48.04
2023-02-17T05:58:13.605Z,47.79
2023-02-17T06:01:00.443Z,47.92
2023-02-17T06:03:46.417Z,47.51
2023-02-17T06:06:32.127Z,47.79
2023-02-17T06:09:17.796Z,47.57
2023-02-17T06:12:04.043Z,47.89
2023-02-17T06:14:49.921Z,47.50
2023-02-17T06:17:35.539Z,47.54
2023-02-17T06:20:21.510Z,47.44
2023-02-17T06:23:07.368Z,47.59
2023-02-17T06:25:53.303Z,47.76
2023-02-17T06:28:39.785Z,48.10
2023-02-17T06:31:26.267Z,47.60
2023-02-17T06:34:11.959Z,48.19
2023-02-17T06:36:58.995Z,47.85
2023-02-17T06:39:44.897Z,48.01
2023-02-17T06:42:31.698Z,47.81
2023-02-17T06:45:17.599Z,47.68
2023-02-17T06:48:03.459Z,47.78
2023-02-17T06:50:49.936Z,47.88
2023-02-17T06:53:37.716Z,48.62
2023-02-17T06:56:23.483Z,47.96
2023-02-17T06:59:09.613Z,48.48
2023-02-17T07:01:55.661Z,48.50
2023-02-17T07:04:42.249Z,48.68
2023-02-17T07:07:28.615Z,48.35
2023-02-17T07:10:14.228Z,48.29
2023-02-17T07:12:59.856Z,48.66
2023-02-17T07:15:45.647Z,48.08
2023-02-17T07:18:32.626Z,48.01
2023-02-17T07:21:18.277Z,48.25
2023-02-17T07:24:07.471Z,48.38
2023-02-17T07:26:55.710Z,48.95
2023-02-17T07:29:45.156Z,48.91
2023-02-17T07:32:30.836Z,48.91
2023-02-17T07:35:17.995Z,48.57
2023-02-17T07:38:03.574Z,48.18
2023-02-17T07:40:49.324Z,48.42
2023-02-17T07:43:35.072Z,48.31
2023-02-17T07:46:22.589Z,48.91
2023-02-17T07:49:08.533Z,49.03
2023-02-17T07:51:54.200Z,48.13
2023-02-17T07:54:40.012Z,48.78
2023-02-17T07:57:25.869Z,48.70
2023-02-17T08:00:12.072Z,48.28
2023-02-17T08:03:00.947Z,48.48
2023-02-17T08:05:48.256Z,48.50
2023-02-17T08:08:54.362Z,48.48
2023-02-17T08:11:59.870Z,48.38
2023-02-17T08:14:46.198Z,48.82
2023-02-17T08:17:32.845Z,48.36
2023-02-17T08:20:18.823Z,48.55
2023-02-17T08:23:07.970Z,48.72
2023-02-17T08:25:53.760Z,48.55
2023-02-17T08:28:40.153Z,48.41
2023-02-17T08:31:28.509Z,48.12
2023-02-17T08:34:14.294Z,48.31
2023-02-17T08:37:01.531Z,48.30
2023-02-17T08:39:47.367Z,48.04
2023-02-17T08:42:33.188Z,48.07
2023-02-17T08:45:19.236Z,48.44
2023-02-17T08:48:06.433Z,48.33
2023-02-17T08:50:52.431Z,48.20
2023-02-17T08:53:38.566Z,48.57
2023-02-17T08:56:25.796Z,48.43
2023-02-17T08:59:12.644Z,48.34
2023-02-17T09:01:58.794Z,48.19
2023-02-17T09:04:47.235Z,48.06
2023-02-17T09:07:33.840Z,47.93
2023-02-17T09:10:20.054Z,47.95
2023-02-17T09:13:05.985Z,47.63
2023-02-17T09:15:54.065Z,47.58
2023-02-17T09:18:39.924Z,48.02
2023-02-17T09:21:25.677Z,48.04
2023-02-17T09:24:11.509Z,47.94
2023-02-17T09:26:58.591Z,47.39
2023-02-17T09:29:45.585Z,46.94
2023-02-17T09:32:34.374Z,47.10
2023-02-17T09:35:21.056Z,46.91
2023-02-17T09:38:07.357Z,47.03
2023-02-17T09:40:53.279Z,46.51
2023-02-17T09:43:39.544Z,46.78
2023-02-17T09:46:37.426Z,46.80
2023-02-17T09:49:27.225Z,46.27
2023-02-17T09:52:58.573Z,46.18
2023-02-17T09:55:48.549Z,46.28
2023-02-17T09:58:34.222Z,46.15
2023-02-17T10:01:33.553Z,46.08
2023-02-17T10:04:34.562Z,45.75
2023-02-17T10:07:40.576Z,45.44
2023-02-17T10:10:31.756Z,45.37
2023-02-17T10:13:20.629Z,45.33
2023-02-17T10:16:10.349Z,45.19
2023-02-17T10:19:03.265Z,44.92
2023-02-17T10:21:57.913Z,44.88
2023-02-17T10:24:44.088Z,44.56
2023-02-17T10:27:53.074Z,44.27
2023-02-17T10:30:39.113Z,44.26
2023-02-17T10:33:38.914Z,43.98
2023-02-17T10:36:54.590Z,43.26
2023-02-17T10:39:49.588Z,43.58
2023-02-17T10:42:37.511Z,43.40
2023-02-17T10:45:31.542Z,43.42
2023-02-17T10:48:34.265Z,42.65
2023-02-17T10:51:23.994Z,42.88
2023-02-17T10:54:51.879Z,42.17
2023-02-17T10:57:39.516Z,42.34
2023-02-17T11:00:26.863Z,42.55
2023-02-17T11:03:20.590Z,42.51
2023-02-17T11:06:19.787Z,42.25
2023-02-17T11:09:08.357Z,41.66
2023-02-17T11:12:06.837Z,41.57
2023-02-17T11:14:54.496Z,41.62
2023-02-17T11:17:41.276Z,41.19
2023-02-17T11:20:33.420Z,40.98
2023-02-17T11:23:24.279Z,40.21
2023-02-17T11:26:19.158Z,40.38
2023-02-17T11:29:17.905Z,39.85
2023-02-17T11:32:10.705Z,39.77
2023-02-17T11:34:58.441Z,39.79
2023-02-17T11:37:45.238Z,39.79
2023-02-17T11:40:33.053Z,39.28
2023-02-17T11:43:19.309Z,38.92
2023-02-17T11:46:23.669Z,37.18
2023-02-17T11:49:40.607Z,38.43
2023-02-17T11:52:32.586Z,38.02
2023-02-17T11:55:56.496Z,37.18
2023-02-17T11:59:13.758Z,36.57
2023-02-17T12:02:07.023Z,36.76
2023-02-17T12:05:14.062Z,35.61
2023-02-17T12:08:38.398Z,33.34
2023-02-17T12:11:34.033Z,35.71
2023-02-17T12:14:49.494Z,36.12
2023-02-17T12:18:18.139Z,36.33
2023-02-17T12:21:19.183Z,36.49
2023-02-17T12:24:12.675Z,35.51
2023-02-17T12:27:04.830Z,33.47
2023-02-17T12:30:18.607Z,36.15
2023-02-17T12:33:23.268Z,35.82
2023-02-17T12:36:13.267Z,35.77
2023-02-17T12:39:03.084Z,35.12
2023-02-17T12:42:10.957Z,33.72
2023-02-17T12:45:03.007Z,34.70
2023-02-17T12:47:56.356Z,34.71
2023-02-17T12:50:53.304Z,33.83
2023-02-17T12:53:49.393Z,33.63
2023-02-17T12:56:53.052Z,34.38
2023-02-17T12:59:45.258Z,34.02
2023-02-17T13:02:31.433Z,33.86
2023-02-17T13:05:47.472Z,32.58
2023-02-17T13:08:40.363Z,31.40
2023-02-17T13:11:33.777Z,32.81
2023-02-17T13:14:46.145Z,31.76
2023-02-17T13:17:39.586Z,32.85
2023-02-17T13:20:47.252Z,32.59
2023-02-17T13:23:36.515Z,32.46
2023-02-17T13:26:22.680Z,32.04
2023-02-17T13:29:24.003Z,30.27
2023-02-17T13:32:12.502Z,31.25
2023-02-17T13:35:32.531Z,28.22
2023-02-17T13:38:32.168Z,27.58
2023-02-17T13:41:18.210Z,30.48
2023-02-17T13:44:30.467Z,27.85
2023-02-17T13:47:29.208Z,30.15
2023-02-17T13:50:30.844Z,24.46
2023-02-17T13:53:31.224Z,28.95
2023-02-17T13:56:27.170Z,29.00
2023-02-17T13:59:19.022Z,29.64
2023-02-17T14:02:35.448Z,28.16
2023-02-17T14:05:37.346Z,29.30
2023-02-17T14:08:38.407Z,27.45
2023-02-17T14:11:31.287Z,29.17
2023-02-17T14:14:19.234Z,29.12
2023-02-17T14:17:15.626Z,29.02
2023-02-17T14:20:02.673Z,29.45
2023-02-17T14:23:04.315Z,28.69
2023-02-17T14:25:51.673Z,29.25
2023-02-17T14:28:37.449Z,29.57
2023-02-17T14:31:24.586Z,29.35
2023-02-17T14:34:31.957Z,28.92
2023-02-17T14:37:22.104Z,29.46
2023-02-17T14:40:16.987Z,29.19
2023-02-17T14:43:02.887Z,29.63
2023-02-17T14:45:49.280Z,29.76
2023-02-17T14:48:35.134Z,30.02
2023-02-17T14:51:23.373Z,30.18
2023-02-17T14:54:15.330Z,30.19
2023-02-17T14:57:11.649Z,30.38
2023-02-17T14:59:58.080Z,30.81
2023-02-17T15:02:43.951Z,30.90
2023-02-17T15:05:29.913Z,31.00
2023-02-17T15:08:19.430Z,31.28
2023-02-17T15:11:06.023Z,31.39
2023-02-17T15:13:52.208Z,31.36
2023-02-17T15:16:37.981Z,31.45
2023-02-17T15:19:24.777Z,31.56
2023-02-17T15:22:12.226Z,31.68
2023-02-17T15:24:58.003Z,32.24
2023-02-17T15:27:46.563Z,32.16
2023-02-17T15:30:33.012Z,32.08
2023-02-17T15:33:20.867Z,32.53
2023-02-17T15:36:07.408Z,32.17
2023-02-17T15:38:54.106Z,32.76
2023-02-17T15:41:41.648Z,32.69
2023-02-17T15:44:38.840Z,32.78
2023-02-17T15:47:24.603Z,32.69
2023-02-17T15:50:28.581Z,32.89
2023-02-17T15:53:14.284Z,33.40
2023-02-17T15:56:02.906Z,33.15
2023-02-17T15:58:49.984Z,33.25
2023-02-17T16:01:36.390Z,33.50
2023-02-17T16:04:22.682Z,33.55
2023-02-17T16:07:08.797Z,33.53
2023-02-17T16:09:54.838Z,33.67
2023-02-17T16:12:44.234Z,34.07
2023-02-17T16:15:31.751Z,33.95
2023-02-17T16:18:23.887Z,34.23
2023-02-17T16:21:11.612Z,34.33
2023-02-17T16:23:59.902Z,34.17
2023-02-17T16:26:46.360Z,34.26
2023-02-17T16:29:32.003Z,34.53
2023-02-17T16:32:20.013Z,34.60
2023-02-17T16:35:06.529Z,34.67
2023-02-17T16:38:01.364Z,34.80
2023-02-17T16:40:49.104Z,35.04
2023-02-17T16:43:35.401Z,35.09
2023-02-17T16:46:33.651Z,35.52
2023-02-17T16:49:19.780Z,35.46
2023-02-17T16:52:12.946Z,35.50
2023-02-17T16:54:59.029Z,35.54
2023-02-17T16:57:46.056Z,35.58
2023-02-17T17:00:33.224Z,35.62
2023-02-17T17:03:19.817Z,35.60
2023-02-17T17:06:18.647Z,36.26
2023-02-17T17:09:05.710Z,36.12
2023-02-17T17:11:51.813Z,36.23
2023-02-17T17:14:37.554Z,36.17
2023-02-17T17:17:23.447Z,36.36
2023-02-17T17:20:19.420Z,36.72
2023-02-17T17:23:08.686Z,36.58
2023-02-17T17:25:57.310Z,36.65
2023-02-17T17:28:43.687Z,36.56
2023-02-17T17:31:29.997Z,36.72
2023-02-17T17:34:16.060Z,36.65
2023-02-17T17:37:02.639Z,36.70
2023-02-17T17:39:48.613Z,36.96
2023-02-17T17:42:37.835Z,37.03
2023-02-17T17:45:25.324Z,37.26
2023-02-17T17:48:15.756Z,37.69
2023-02-17T17:51:01.981Z,37.53
2023-02-17T17:53:51.650Z,37.58
2023-02-17T17:56:42.107Z,37.46
2023-02-17T17:59:28.497Z,37.37
2023-02-17T18:02:21.333Z,37.62
2023-02-17T18:05:08.092Z,37.63
2023-02-17T18:07:54.055Z,37.73
2023-02-17T18:10:41.234Z,37.74
2023-02-17T18:13:27.214Z,37.37
2023-02-17T18:16:14.282Z,37.75
2023-02-17T18:19:01.844Z,37.93
2023-02-17T18:21:48.191Z,38.32
2023-02-17T18:24:34.707Z,38.01
2023-02-17T18:27:22.012Z,37.93
2023-02-17T18:30:10.074Z,38.01
2023-02-17T18:32:56.604Z,38.52
2023-02-17T18:35:45.593Z,37.89
2023-02-17T18:38:31.690Z,38.11
2023-02-17T18:41:24.208Z,38.35
2023-02-17T18:44:13.829Z,38.80
2023-02-17T18:46:59.917Z,38.69
2023-02-17T18:49:45.773Z,38.36
2023-02-17T18:52:31.722Z,38.48
2023-02-17T18:55:17.793Z,38.99
2023-02-17T18:58:04.929Z,38.53
2023-02-17T19:00:51.182Z,39.30
2023-02-17T19:03:37.261Z,39.00
2023-02-17T19:06:26.259Z,39.15
2023-02-17T19:09:12.441Z,38.99
2023-02-17T19:11:58.582Z,39.32
2023-02-17T19:14:45.021Z,39.39
2023-02-17T19:17:31.174Z,39.60
2023-02-17T19:20:17.244Z,39.56
2023-02-17T19:23:03.520Z,40.13
2023-02-17T19:25:49.399Z,39.41
2023-02-17T19:28:36.895Z,39.94
2023-02-17T19:31:23.411Z,39.95
2023-02-17T19:34:09.448Z,39.62
2023-02-17T19:36:55.818Z,39.98
2023-02-17T19:39:41.806Z,40.03
2023-02-17T19:42:28.509Z,40.43
2023-02-17T19:45:14.767Z,39.79
2023-02-17T19:48:01.153Z,40.39
2023-02-17T19:50:47.446Z,40.49
2023-02-17T19:53:33.526Z,40.07
2023-02-17T19:56:23.346Z,40.62
2023-02-17T19:59:09.482Z,40.54
2023-02-17T20:01:55.753Z,40.68
2023-02-17T20:04:42.207Z,40.93
2023-02-17T20:07:29.541Z,40.89
2023-02-17T20:10:15.420Z,40.57
2023-02-17T20:13:01.301Z,40.29
2023-02-17T20:15:46.997Z,41.13
2023-02-17T20:18:37.457Z,40.64
2023-02-17T20:21:26.345Z,41.19
2023-02-17T20:24:14.233Z,41.13
2023-02-17T20:27:00.100Z,41.28
2023-02-17T20:29:46.144Z,41.21
2023-02-17T20:32:31.955Z,41.26
2023-02-17T20:35:17.611Z,41.23
2023-02-17T20:38:05.393Z,41.22
2023-02-17T20:40:51.581Z,41.13
2023-02-17T20:43:38.378Z,41.75
2023-02-17T20:46:26.805Z,42.05
2023-02-17T20:49:13.876Z,41.85
2023-02-17T20:51:59.900Z,41.80
2023-02-17T20:54:46.344Z,41.64
2023-02-17T20:57:32.187Z,41.96
2023-02-17T21:00:20.768Z,42.10
2023-02-17T21:03:06.773Z,41.65
2023-02-17T21:05:53.004Z,42.25
2023-02-17T21:08:38.839Z,42.00
2023-02-17T21:11:25.225Z,42.37
2023-02-17T21:14:11.488Z,41.92
2023-02-17T21:16:57.771Z,42.43
2023-02-17T21:19:43.927Z,42.24
2023-02-17T21:22:29.643Z,42.36
2023-02-17T21:25:15.395Z,42.78
2023-02-17T21:28:01.016Z,42.72
2023-02-17T21:30:47.547Z,42.60
2023-02-17T21:33:34.239Z,42.71
2023-02-17T21:36:19.966Z,42.81
2023-02-17T21:39:06.180Z,42.54
2023-02-17T21:41:53.960Z,42.61
2023-02-17T21:44:52.354Z,42.69
2023-02-17T21:47:38.388Z,42.62
2023-02-17T21:50:24.196Z,42.78
2023-02-17T21:53:10.048Z,42.59
2023-02-17T21:55:59.071Z,42.89
2023-02-17T21:58:50.114Z,43.37
2023-02-17T22:01:37.538Z,42.97
2023-02-17T22:04:26.630Z,43.08
2023-02-17T22:07:15.700Z,42.87
2023-02-17T22:10:02.221Z,43.16
2023-02-17T22:12:48.273Z,43.58
2023-02-17T22:15:35.088Z,43.32
2023-02-17T22:18:21.268Z,43.23
2023-02-17T22:21:11.489Z,43.22
2023-02-17T22:24:01.557Z,43.22
2023-02-17T22:26:48.452Z,43.44
2023-02-17T22:29:35.445Z,43.37
2023-02-17T22:32:21.476Z,43.64
2023-02-17T22:35:08.208Z,43.52
2023-02-17T22:37:54.366Z,43.59
2023-02-17T22:40:41.476Z,43.84
2023-02-17T22:43:27.511Z,43.70
2023-02-17T22:46:18.744Z,43.69
2023-02-17T22:49:05.422Z,44.00
2023-02-17T22:51:52.647Z,44.08
2023-02-17T22:54:39.003Z,44.07
2023-02-17T22:57:25.242Z,44.38
2023-02-17T23:00:11.418Z,44.35
2023-02-17T23:02:57.322Z,44.27
2023-02-17T23:05:43.897Z,44.17
2023-02-17T23:08:30.006Z,44.26
2023-02-17T23:11:39.957Z,44.30
2023-02-17T23:14:29.731Z,44.25
2023-02-17T23:17:15.610Z,44.58
2023-02-17T23:20:02.520Z,44.09
2023-02-17T23:22:48.208Z,44.18
2023-02-17T23:25:35.589Z,44.50
2023-02-17T23:28:24.088Z,44.59
2023-02-17T23:31:10.739Z,45.06
2023-02-17T23:33:56.596Z,44.85
2023-02-17T23:36:43.772Z,44.93
2023-02-17T23:39:29.899Z,44.93
2023-02-17T23:42:17.097Z,44.88
2023-02-17T23:45:04.262Z,44.83
2023-02-17T23:47:50.369Z,44.67
2023-02-17T23:50:36.034Z,45.02
2023-02-17T23:53:22.013Z,44.87
2023-02-17T23:56:29.439Z,44.83
2023-02-17T23:59:15.373Z,45.67
